sensor_id;sensor_type;location;lat;lon;timestamp;P1;durP1;ratioP1;P2;durP2;ratioP2
23228;SDS011;11783;50.350;6.576;2023-03-31T00:01:03;10.10;;;1.77;;
23228;SDS011;11783;50.350;6.576;2023-03-31T00:03:29;11.18;;;2.38;;
23228;SDS011;11783;50.350;6.576;2023-03-31T00:05:58;10.55;;;1.83;;
23228;SDS011;11783;50.350;6.576;2023-03-31T00:08:28;12.10;;;1.88;;
23228;SDS011;11783;50.350;6.576;2023-03-31T00:10:59;7.35;;;1.88;;
23228;SDS011;11783;50.350;6.576;2023-03-31T00:13:27;10.13;;;1.85;;
23228;SDS011;11783;50.350;6.576;2023-03-31T00:16:00;12.43;;;2.10;;
23228;SDS011;11783;50.350;6.576;2023-03-31T00:18:28;7.22;;;1.52;;
23228;SDS011;11783;50.350;6.576;2023-03-31T00:20:54;11.98;;;1.60;;
23228;SDS011;11783;50.350;6.576;2023-03-31T00:23:23;12.38;;;1.88;;
23228;SDS011;11783;50.350;6.576;2023-03-31T00:25:51;8.85;;;1.88;;
23228;SDS011;11783;50.350;6.576;2023-03-31T00:28:18;12.85;;;2.15;;
23228;SDS011;11783;50.350;6.576;2023-03-31T00:30:43;8.07;;;2.35;;
23228;SDS011;11783;50.350;6.576;2023-03-31T00:33:10;6.68;;;2.25;;
23228;SDS011;11783;50.350;6.576;2023-03-31T00:35:35;9.75;;;1.83;;
23228;SDS011;11783;50.350;6.576;2023-03-31T00:38:03;10.45;;;1.70;;
23228;SDS011;11783;50.350;6.576;2023-03-31T00:40:30;10.25;;;2.72;;
23228;SDS011;11783;50.350;6.576;2023-03-31T00:42:56;9.32;;;1.92;;
23228;SDS011;11783;50.350;6.576;2023-03-31T00:45:23;13.43;;;1.80;;
23228;SDS011;11783;50.350;6.576;2023-03-31T00:48:13;8.30;;;1.60;;
23228;SDS011;11783;50.350;6.576;2023-03-31T00:50:48;7.28;;;1.75;;
23228;SDS011;11783;50.350;6.576;2023-03-31T00:53:17;10.80;;;2.05;;
23228;SDS011;11783;50.350;6.576;2023-03-31T00:55:50;13.15;;;1.48;;
23228;SDS011;11783;50.350;6.576;2023-03-31T00:58:19;10.63;;;1.80;;
23228;SDS011;11783;50.350;6.576;2023-03-31T01:00:52;7.78;;;1.70;;
23228;SDS011;11783;50.350;6.576;2023-03-31T01:03:19;8.07;;;1.73;;
23228;SDS011;11783;50.350;6.576;2023-03-31T01:05:48;10.73;;;1.80;;
23228;SDS011;11783;50.350;6.576;2023-03-31T01:08:18;8.13;;;1.48;;
23228;SDS011;11783;50.350;6.576;2023-03-31T01:10:49;10.23;;;1.77;;
23228;SDS011;11783;50.350;6.576;2023-03-31T01:13:18;8.90;;;1.92;;
23228;SDS011;11783;50.350;6.576;2023-03-31T01:15:45;8.85;;;1.70;;
23228;SDS011;11783;50.350;6.576;2023-03-31T01:18:10;6.45;;;1.70;;
23228;SDS011;11783;50.350;6.576;2023-03-31T01:23:31;5.63;;;1.70;;
23228;SDS011;11783;50.350;6.576;2023-03-31T01:43:31;6.57;;;1.70;;
23228;SDS011;11783;50.350;6.576;2023-03-31T01:48:23;7.00;;;1.83;;
23228;SDS011;11783;50.350;6.576;2023-03-31T01:50:58;12.02;;;2.13;;
23228;SDS011;11783;50.350;6.576;2023-03-31T01:56:25;10.00;;;1.80;;
23228;SDS011;11783;50.350;6.576;2023-03-31T02:01:31;11.05;;;1.90;;
23228;SDS011;11783;50.350;6.576;2023-03-31T02:04:08;9.57;;;2.00;;
23228;SDS011;11783;50.350;6.576;2023-03-31T02:06:39;10.68;;;2.10;;
23228;SDS011;11783;50.350;6.576;2023-03-31T02:09:19;9.23;;;1.80;;
23228;SDS011;11783;50.350;6.576;2023-03-31T02:11:49;10.27;;;2.28;;
23228;SDS011;11783;50.350;6.576;2023-03-31T02:14:18;9.38;;;1.50;;
23228;SDS011;11783;50.350;6.576;2023-03-31T02:16:46;8.05;;;1.55;;
23228;SDS011;11783;50.350;6.576;2023-03-31T02:19:17;4.57;;;1.35;;
23228;SDS011;11783;50.350;6.576;2023-03-31T02:21:47;5.50;;;1.60;;
23228;SDS011;11783;50.350;6.576;2023-03-31T02:24:14;4.80;;;1.40;;
23228;SDS011;11783;50.350;6.576;2023-03-31T02:26:47;7.00;;;1.63;;
23228;SDS011;11783;50.350;6.576;2023-03-31T02:29:25;5.95;;;1.45;;
23228;SDS011;11783;50.350;6.576;2023-03-31T02:34:28;13.52;;;1.60;;
23228;SDS011;11783;50.350;6.576;2023-03-31T02:36:53;5.88;;;1.35;;
23228;SDS011;11783;50.350;6.576;2023-03-31T02:39:20;7.20;;;1.10;;
23228;SDS011;11783;50.350;6.576;2023-03-31T02:41:51;6.03;;;1.30;;
23228;SDS011;11783;50.350;6.576;2023-03-31T02:44:17;6.35;;;1.20;;
23228;SDS011;11783;50.350;6.576;2023-03-31T02:46:43;6.82;;;1.27;;
23228;SDS011;11783;50.350;6.576;2023-03-31T02:49:09;4.20;;;0.95;;
23228;SDS011;11783;50.350;6.576;2023-03-31T02:54:49;4.85;;;1.23;;
23228;SDS011;11783;50.350;6.576;2023-03-31T02:57:43;4.53;;;1.40;;
23228;SDS011;11783;50.350;6.576;2023-03-31T03:11:22;4.38;;;1.17;;
23228;SDS011;11783;50.350;6.576;2023-03-31T03:14:09;6.40;;;1.05;;
23228;SDS011;11783;50.350;6.576;2023-03-31T03:17:01;6.13;;;1.10;;
23228;SDS011;11783;50.350;6.576;2023-03-31T03:19:31;4.50;;;1.00;;
23228;SDS011;11783;50.350;6.576;2023-03-31T03:21:56;3.90;;;0.85;;
23228;SDS011;11783;50.350;6.576;2023-03-31T03:24:22;4.28;;;1.08;;
23228;SDS011;11783;50.350;6.576;2023-03-31T03:26:48;2.90;;;1.20;;
23228;SDS011;11783;50.350;6.576;2023-03-31T03:29:13;5.90;;;1.50;;
23228;SDS011;11783;50.350;6.576;2023-03-31T03:31:39;5.95;;;1.25;;
23228;SDS011;11783;50.350;6.576;2023-03-31T03:34:05;8.07;;;1.20;;
23228;SDS011;11783;50.350;6.576;2023-03-31T03:36:31;5.25;;;1.00;;
23228;SDS011;11783;50.350;6.576;2023-03-31T03:38:57;5.45;;;1.00;;
23228;SDS011;11783;50.350;6.576;2023-03-31T03:41:22;4.78;;;1.20;;
23228;SDS011;11783;50.350;6.576;2023-03-31T03:43:47;5.85;;;1.17;;
23228;SDS011;11783;50.350;6.576;2023-03-31T03:46:13;6.18;;;1.50;;
23228;SDS011;11783;50.350;6.576;2023-03-31T03:48:38;6.22;;;1.10;;
23228;SDS011;11783;50.350;6.576;2023-03-31T03:51:04;2.63;;;0.82;;
23228;SDS011;11783;50.350;6.576;2023-03-31T03:53:30;3.00;;;1.02;;
23228;SDS011;11783;50.350;6.576;2023-03-31T03:55:55;6.90;;;0.90;;
23228;SDS011;11783;50.350;6.576;2023-03-31T03:58:23;4.22;;;0.93;;
23228;SDS011;11783;50.350;6.576;2023-03-31T04:00:48;4.25;;;1.02;;
23228;SDS011;11783;50.350;6.576;2023-03-31T04:03:14;3.85;;;0.90;;
23228;SDS011;11783;50.350;6.576;2023-03-31T04:05:40;6.15;;;1.05;;
23228;SDS011;11783;50.350;6.576;2023-03-31T04:08:06;4.97;;;1.08;;
23228;SDS011;11783;50.350;6.576;2023-03-31T04:10:32;6.18;;;1.08;;
23228;SDS011;11783;50.350;6.576;2023-03-31T04:12:59;4.70;;;0.90;;
23228;SDS011;11783;50.350;6.576;2023-03-31T04:15:24;4.22;;;1.45;;
23228;SDS011;11783;50.350;6.576;2023-03-31T04:17:50;2.63;;;0.80;;
23228;SDS011;11783;50.350;6.576;2023-03-31T04:20:18;6.28;;;0.90;;
23228;SDS011;11783;50.350;6.576;2023-03-31T04:22:44;2.72;;;1.08;;
23228;SDS011;11783;50.350;6.576;2023-03-31T04:25:12;3.08;;;0.80;;
23228;SDS011;11783;50.350;6.576;2023-03-31T04:27:47;4.78;;;0.80;;
23228;SDS011;11783;50.350;6.576;2023-03-31T04:30:17;8.52;;;0.88;;
23228;SDS011;11783;50.350;6.576;2023-03-31T04:32:49;5.30;;;0.73;;
23228;SDS011;11783;50.350;6.576;2023-03-31T04:35:17;4.13;;;0.70;;
23228;SDS011;11783;50.350;6.576;2023-03-31T04:37:44;3.33;;;0.75;;
23228;SDS011;11783;50.350;6.576;2023-03-31T04:40:10;2.90;;;0.85;;
23228;SDS011;11783;50.350;6.576;2023-03-31T04:42:35;5.22;;;0.95;;
23228;SDS011;11783;50.350;6.576;2023-03-31T04:45:01;7.85;;;0.90;;
23228;SDS011;11783;50.350;6.576;2023-03-31T04:47:27;3.38;;;0.80;;
23228;SDS011;11783;50.350;6.576;2023-03-31T04:49:52;2.45;;;0.50;;
23228;SDS011;11783;50.350;6.576;2023-03-31T04:52:18;4.38;;;1.48;;
23228;SDS011;11783;50.350;6.576;2023-03-31T04:54:43;1.70;;;0.57;;
23228;SDS011;11783;50.350;6.576;2023-03-31T04:57:09;1.25;;;0.50;;
23228;SDS011;11783;50.350;6.576;2023-03-31T04:59:35;1.65;;;0.68;;
23228;SDS011;11783;50.350;6.576;2023-03-31T05:02:00;1.58;;;0.55;;
23228;SDS011;11783;50.350;6.576;2023-03-31T05:04:25;1.02;;;0.50;;
23228;SDS011;11783;50.350;6.576;2023-03-31T05:06:51;2.28;;;0.52;;
23228;SDS011;11783;50.350;6.576;2023-03-31T05:09:16;1.73;;;0.50;;
23228;SDS011;11783;50.350;6.576;2023-03-31T05:11:41;3.95;;;0.57;;
23228;SDS011;11783;50.350;6.576;2023-03-31T05:14:07;2.17;;;0.63;;
23228;SDS011;11783;50.350;6.576;2023-03-31T05:16:32;0.60;;;0.47;;
23228;SDS011;11783;50.350;6.576;2023-03-31T05:18:58;1.58;;;0.40;;
23228;SDS011;11783;50.350;6.576;2023-03-31T05:21:23;2.85;;;0.50;;
23228;SDS011;11783;50.350;6.576;2023-03-31T05:23:50;1.13;;;0.50;;
23228;SDS011;11783;50.350;6.576;2023-03-31T05:26:16;1.00;;;0.50;;
23228;SDS011;11783;50.350;6.576;2023-03-31T05:28:42;1.83;;;0.60;;
23228;SDS011;11783;50.350;6.576;2023-03-31T05:31:08;1.40;;;0.50;;
23228;SDS011;11783;50.350;6.576;2023-03-31T05:33:35;1.95;;;0.50;;
23228;SDS011;11783;50.350;6.576;2023-03-31T05:36:06;0.82;;;0.50;;
23228;SDS011;11783;50.350;6.576;2023-03-31T05:38:36;0.57;;;0.33;;
23228;SDS011;11783;50.350;6.576;2023-03-31T05:41:01;0.55;;;0.40;;
23228;SDS011;11783;50.350;6.576;2023-03-31T05:43:27;1.67;;;0.63;;
23228;SDS011;11783;50.350;6.576;2023-03-31T05:45:52;1.50;;;0.60;;
23228;SDS011;11783;50.350;6.576;2023-03-31T05:48:17;3.38;;;0.70;;
23228;SDS011;11783;50.350;6.576;2023-03-31T05:50:43;2.28;;;0.60;;
23228;SDS011;11783;50.350;6.576;2023-03-31T05:53:08;0.95;;;0.60;;
23228;SDS011;11783;50.350;6.576;2023-03-31T05:55:37;2.35;;;0.40;;
23228;SDS011;11783;50.350;6.576;2023-03-31T05:58:03;1.88;;;0.55;;
23228;SDS011;11783;50.350;6.576;2023-03-31T06:00:28;2.83;;;0.50;;
23228;SDS011;11783;50.350;6.576;2023-03-31T06:02:55;0.50;;;0.38;;
23228;SDS011;11783;50.350;6.576;2023-03-31T06:05:21;3.53;;;0.60;;
23228;SDS011;11783;50.350;6.576;2023-03-31T06:07:50;1.48;;;0.50;;
23228;SDS011;11783;50.350;6.576;2023-03-31T06:10:16;1.05;;;0.50;;
23228;SDS011;11783;50.350;6.576;2023-03-31T06:12:41;0.50;;;0.45;;
23228;SDS011;11783;50.350;6.576;2023-03-31T06:15:06;1.08;;;0.45;;
23228;SDS011;11783;50.350;6.576;2023-03-31T06:17:32;2.30;;;0.50;;
23228;SDS011;11783;50.350;6.576;2023-03-31T06:19:57;0.63;;;0.40;;
23228;SDS011;11783;50.350;6.576;2023-03-31T06:22:23;0.75;;;0.40;;
23228;SDS011;11783;50.350;6.576;2023-03-31T06:24:48;0.80;;;0.40;;
23228;SDS011;11783;50.350;6.576;2023-03-31T06:27:13;0.90;;;0.40;;
23228;SDS011;11783;50.350;6.576;2023-03-31T06:29:39;1.65;;;0.60;;
23228;SDS011;11783;50.350;6.576;2023-03-31T06:32:05;0.70;;;0.40;;
23228;SDS011;11783;50.350;6.576;2023-03-31T06:34:30;3.88;;;0.50;;
23228;SDS011;11783;50.350;6.576;2023-03-31T06:36:55;0.95;;;0.40;;
23228;SDS011;11783;50.350;6.576;2023-03-31T06:39:21;2.05;;;0.68;;
23228;SDS011;11783;50.350;6.576;2023-03-31T06:41:46;4.10;;;0.60;;
23228;SDS011;11783;50.350;6.576;2023-03-31T06:44:11;4.55;;;0.63;;
23228;SDS011;11783;50.350;6.576;2023-03-31T06:46:37;1.98;;;0.50;;
23228;SDS011;11783;50.350;6.576;2023-03-31T06:49:02;2.67;;;0.60;;
23228;SDS011;11783;50.350;6.576;2023-03-31T06:51:27;0.70;;;0.50;;
23228;SDS011;11783;50.350;6.576;2023-03-31T06:53:53;1.98;;;0.85;;
23228;SDS011;11783;50.350;6.576;2023-03-31T06:56:18;3.40;;;0.70;;
23228;SDS011;11783;50.350;6.576;2023-03-31T06:58:43;2.85;;;1.13;;
23228;SDS011;11783;50.350;6.576;2023-03-31T07:01:09;3.53;;;0.80;;
23228;SDS011;11783;50.350;6.576;2023-03-31T07:03:35;2.90;;;0.98;;
23228;SDS011;11783;50.350;6.576;2023-03-31T07:06:00;3.05;;;0.90;;
23228;SDS011;11783;50.350;6.576;2023-03-31T07:08:26;3.22;;;1.05;;
23228;SDS011;11783;50.350;6.576;2023-03-31T07:10:55;7.03;;;1.10;;
23228;SDS011;11783;50.350;6.576;2023-03-31T07:13:22;6.50;;;1.50;;
23228;SDS011;11783;50.350;6.576;2023-03-31T07:15:49;4.18;;;0.90;;
23228;SDS011;11783;50.350;6.576;2023-03-31T07:18:15;4.82;;;1.15;;
23228;SDS011;11783;50.350;6.576;2023-03-31T07:20:43;8.18;;;1.50;;
23228;SDS011;11783;50.350;6.576;2023-03-31T07:23:11;7.28;;;1.30;;
23228;SDS011;11783;50.350;6.576;2023-03-31T07:25:36;5.05;;;1.52;;
23228;SDS011;11783;50.350;6.576;2023-03-31T07:28:02;8.07;;;1.33;;
23228;SDS011;11783;50.350;6.576;2023-03-31T07:30:28;5.03;;;1.08;;
23228;SDS011;11783;50.350;6.576;2023-03-31T07:32:54;7.43;;;1.33;;
23228;SDS011;11783;50.350;6.576;2023-03-31T07:35:19;8.70;;;1.50;;
23228;SDS011;11783;50.350;6.576;2023-03-31T07:37:46;7.90;;;1.83;;
23228;SDS011;11783;50.350;6.576;2023-03-31T07:40:17;5.22;;;1.65;;
23228;SDS011;11783;50.350;6.576;2023-03-31T07:42:44;11.25;;;1.85;;
23228;SDS011;11783;50.350;6.576;2023-03-31T07:45:11;7.60;;;1.73;;
23228;SDS011;11783;50.350;6.576;2023-03-31T07:47:37;9.93;;;1.90;;
23228;SDS011;11783;50.350;6.576;2023-03-31T07:50:04;9.13;;;1.60;;
23228;SDS011;11783;50.350;6.576;2023-03-31T07:52:30;10.55;;;2.10;;
23228;SDS011;11783;50.350;6.576;2023-03-31T07:54:55;8.27;;;1.85;;
23228;SDS011;11783;50.350;6.576;2023-03-31T07:57:21;7.75;;;1.77;;
23228;SDS011;11783;50.350;6.576;2023-03-31T07:59:46;6.40;;;1.48;;
23228;SDS011;11783;50.350;6.576;2023-03-31T08:02:13;8.30;;;1.95;;
23228;SDS011;11783;50.350;6.576;2023-03-31T08:04:41;5.32;;;1.55;;
23228;SDS011;11783;50.350;6.576;2023-03-31T08:07:08;5.78;;;1.35;;
23228;SDS011;11783;50.350;6.576;2023-03-31T08:09:34;7.65;;;1.48;;
23228;SDS011;11783;50.350;6.576;2023-03-31T08:12:01;7.55;;;1.60;;
23228;SDS011;11783;50.350;6.576;2023-03-31T08:14:27;6.90;;;1.60;;
23228;SDS011;11783;50.350;6.576;2023-03-31T08:16:52;5.05;;;1.40;;
23228;SDS011;11783;50.350;6.576;2023-03-31T08:19:19;4.82;;;1.33;;
23228;SDS011;11783;50.350;6.576;2023-03-31T08:21:46;7.20;;;1.45;;
23228;SDS011;11783;50.350;6.576;2023-03-31T08:24:12;7.32;;;1.70;;
23228;SDS011;11783;50.350;6.576;2023-03-31T08:26:37;10.65;;;1.90;;
23228;SDS011;11783;50.350;6.576;2023-03-31T08:29:06;5.50;;;1.20;;
23228;SDS011;11783;50.350;6.576;2023-03-31T08:31:32;6.07;;;2.10;;
23228;SDS011;11783;50.350;6.576;2023-03-31T08:33:58;12.65;;;1.83;;
23228;SDS011;11783;50.350;6.576;2023-03-31T08:36:25;11.30;;;2.15;;
23228;SDS011;11783;50.350;6.576;2023-03-31T08:38:51;7.90;;;1.50;;
23228;SDS011;11783;50.350;6.576;2023-03-31T08:46:50;12.57;;;2.10;;
23228;SDS011;11783;50.350;6.576;2023-03-31T08:49:19;9.70;;;1.48;;
23228;SDS011;11783;50.350;6.576;2023-03-31T08:51:46;8.10;;;1.60;;
23228;SDS011;11783;50.350;6.576;2023-03-31T08:54:30;7.40;;;1.77;;
23228;SDS011;11783;50.350;6.576;2023-03-31T08:56:58;7.88;;;1.73;;
23228;SDS011;11783;50.350;6.576;2023-03-31T08:59:30;9.57;;;1.90;;
23228;SDS011;11783;50.350;6.576;2023-03-31T09:15:28;8.13;;;1.55;;
23228;SDS011;11783;50.350;6.576;2023-03-31T09:20:47;10.63;;;1.67;;
23228;SDS011;11783;50.350;6.576;2023-03-31T09:23:21;5.60;;;1.10;;
23228;SDS011;11783;50.350;6.576;2023-03-31T09:25:51;6.70;;;1.58;;
23228;SDS011;11783;50.350;6.576;2023-03-31T09:28:19;11.77;;;1.75;;
23228;SDS011;11783;50.350;6.576;2023-03-31T09:30:46;8.57;;;1.20;;
23228;SDS011;11783;50.350;6.576;2023-03-31T09:33:28;6.45;;;1.20;;
23228;SDS011;11783;50.350;6.576;2023-03-31T09:35:59;6.82;;;1.20;;
23228;SDS011;11783;50.350;6.576;2023-03-31T09:38:25;7.72;;;1.30;;
23228;SDS011;11783;50.350;6.576;2023-03-31T09:40:54;7.88;;;1.45;;
23228;SDS011;11783;50.350;6.576;2023-03-31T09:43:22;9.43;;;1.25;;
23228;SDS011;11783;50.350;6.576;2023-03-31T09:45:52;11.57;;;1.58;;
23228;SDS011;11783;50.350;6.576;2023-03-31T09:48:19;7.68;;;1.42;;
23228;SDS011;11783;50.350;6.576;2023-03-31T09:50:54;5.82;;;1.45;;
23228;SDS011;11783;50.350;6.576;2023-03-31T09:53:26;13.40;;;2.25;;
23228;SDS011;11783;50.350;6.576;2023-03-31T09:56:02;9.35;;;1.90;;
23228;SDS011;11783;50.350;6.576;2023-03-31T10:00:59;16.15;;;2.22;;
23228;SDS011;11783;50.350;6.576;2023-03-31T10:03:27;10.90;;;2.20;;
23228;SDS011;11783;50.350;6.576;2023-03-31T10:05:55;12.25;;;1.85;;
23228;SDS011;11783;50.350;6.576;2023-03-31T10:10:55;10.70;;;2.22;;
23228;SDS011;11783;50.350;6.576;2023-03-31T10:13:41;11.75;;;2.17;;
23228;SDS011;11783;50.350;6.576;2023-03-31T10:16:30;13.65;;;2.40;;
23228;SDS011;11783;50.350;6.576;2023-03-31T10:21:45;10.05;;;1.92;;
23228;SDS011;11783;50.350;6.576;2023-03-31T10:24:17;12.57;;;1.98;;
23228;SDS011;11783;50.350;6.576;2023-03-31T10:26:45;17.45;;;2.10;;
23228;SDS011;11783;50.350;6.576;2023-03-31T10:29:14;14.40;;;2.15;;
23228;SDS011;11783;50.350;6.576;2023-03-31T10:31:49;14.85;;;1.88;;
23228;SDS011;11783;50.350;6.576;2023-03-31T10:34:15;12.80;;;1.83;;
23228;SDS011;11783;50.350;6.576;2023-03-31T10:36:46;15.57;;;1.88;;
23228;SDS011;11783;50.350;6.576;2023-03-31T10:39:14;14.50;;;2.45;;
23228;SDS011;11783;50.350;6.576;2023-03-31T10:41:41;14.88;;;2.20;;
23228;SDS011;11783;50.350;6.576;2023-03-31T10:44:10;12.32;;;2.47;;
23228;SDS011;11783;50.350;6.576;2023-03-31T10:46:56;11.73;;;1.88;;
23228;SDS011;11783;50.350;6.576;2023-03-31T10:49:28;12.73;;;2.10;;
23228;SDS011;11783;50.350;6.576;2023-03-31T10:51:55;8.93;;;1.70;;
23228;SDS011;11783;50.350;6.576;2023-03-31T10:54:25;14.60;;;2.78;;
23228;SDS011;11783;50.350;6.576;2023-03-31T10:56:51;11.65;;;2.00;;
23228;SDS011;11783;50.350;6.576;2023-03-31T11:15:27;11.68;;;2.00;;
23228;SDS011;11783;50.350;6.576;2023-03-31T11:21:17;13.25;;;2.60;;
23228;SDS011;11783;50.350;6.576;2023-03-31T11:26:53;12.75;;;1.70;;
23228;SDS011;11783;50.350;6.576;2023-03-31T11:37:21;12.00;;;1.88;;
23228;SDS011;11783;50.350;6.576;2023-03-31T11:43:25;12.93;;;1.70;;
23228;SDS011;11783;50.350;6.576;2023-03-31T11:48:46;12.80;;;1.58;;
23228;SDS011;11783;50.350;6.576;2023-03-31T11:51:19;12.23;;;1.35;;
23228;SDS011;11783;50.350;6.576;2023-03-31T11:53:49;6.38;;;1.10;;
23228;SDS011;11783;50.350;6.576;2023-03-31T11:56:17;5.00;;;1.00;;
23228;SDS011;11783;50.350;6.576;2023-03-31T11:58:50;6.32;;;1.08;;
23228;SDS011;11783;50.350;6.576;2023-03-31T12:01:23;9.35;;;1.73;;
23228;SDS011;11783;50.350;6.576;2023-03-31T12:03:55;11.15;;;1.40;;
23228;SDS011;11783;50.350;6.576;2023-03-31T12:06:21;10.48;;;1.42;;
23228;SDS011;11783;50.350;6.576;2023-03-31T12:09:03;8.93;;;1.58;;
23228;SDS011;11783;50.350;6.576;2023-03-31T12:17:28;9.30;;;1.30;;
23228;SDS011;11783;50.350;6.576;2023-03-31T12:19:55;10.57;;;1.92;;
23228;SDS011;11783;50.350;6.576;2023-03-31T12:22:25;10.13;;;1.80;;
23228;SDS011;11783;50.350;6.576;2023-03-31T12:24:55;9.93;;;1.63;;
23228;SDS011;11783;50.350;6.576;2023-03-31T12:30:06;9.90;;;1.30;;
23228;SDS011;11783;50.350;6.576;2023-03-31T12:32:39;13.43;;;1.88;;
23228;SDS011;11783;50.350;6.576;2023-03-31T12:35:17;11.73;;;2.22;;
23228;SDS011;11783;50.350;6.576;2023-03-31T12:57:20;6.60;;;0.88;;
23228;SDS011;11783;50.350;6.576;2023-03-31T13:02:34;9.10;;;1.25;;
23228;SDS011;11783;50.350;6.576;2023-03-31T13:04:59;7.18;;;1.40;;
23228;SDS011;11783;50.350;6.576;2023-03-31T13:08:03;15.77;;;1.50;;
23228;SDS011;11783;50.350;6.576;2023-03-31T13:10:30;7.78;;;1.40;;
23228;SDS011;11783;50.350;6.576;2023-03-31T13:15:24;7.72;;;1.50;;
23228;SDS011;11783;50.350;6.576;2023-03-31T13:17:54;8.45;;;1.73;;
23228;SDS011;11783;50.350;6.576;2023-03-31T13:20:37;11.57;;;2.20;;
23228;SDS011;11783;50.350;6.576;2023-03-31T13:28:13;6.85;;;1.33;;
23228;SDS011;11783;50.350;6.576;2023-03-31T13:41:46;9.55;;;1.13;;
23228;SDS011;11783;50.350;6.576;2023-03-31T13:44:36;4.50;;;1.05;;
23228;SDS011;11783;50.350;6.576;2023-03-31T13:49:52;8.88;;;1.20;;
23228;SDS011;11783;50.350;6.576;2023-03-31T13:52:24;8.25;;;1.55;;
23228;SDS011;11783;50.350;6.576;2023-03-31T14:03:19;7.28;;;1.42;;
23228;SDS011;11783;50.350;6.576;2023-03-31T14:08:54;9.55;;;1.65;;
23228;SDS011;11783;50.350;6.576;2023-03-31T14:11:25;9.05;;;1.35;;
23228;SDS011;11783;50.350;6.576;2023-03-31T14:13:59;6.32;;;1.38;;
23228;SDS011;11783;50.350;6.576;2023-03-31T14:16:25;8.70;;;1.33;;
23228;SDS011;11783;50.350;6.576;2023-03-31T14:18:55;8.23;;;1.63;;
23228;SDS011;11783;50.350;6.576;2023-03-31T14:21:33;7.30;;;1.30;;
23228;SDS011;11783;50.350;6.576;2023-03-31T14:24:10;7.07;;;1.13;;
23228;SDS011;11783;50.350;6.576;2023-03-31T14:26:46;6.72;;;1.25;;
23228;SDS011;11783;50.350;6.576;2023-03-31T14:37:47;6.88;;;1.02;;
23228;SDS011;11783;50.350;6.576;2023-03-31T14:40:13;10.63;;;1.08;;
23228;SDS011;11783;50.350;6.576;2023-03-31T14:42:41;6.25;;;0.95;;
23228;SDS011;11783;50.350;6.576;2023-03-31T14:48:12;5.97;;;0.98;;
23228;SDS011;11783;50.350;6.576;2023-03-31T14:50:42;8.35;;;1.20;;
23228;SDS011;11783;50.350;6.576;2023-03-31T14:53:16;5.05;;;0.75;;
23228;SDS011;11783;50.350;6.576;2023-03-31T14:55:44;3.78;;;0.98;;
23228;SDS011;11783;50.350;6.576;2023-03-31T14:58:12;4.82;;;0.98;;
23228;SDS011;11783;50.350;6.576;2023-03-31T15:00:49;8.40;;;0.80;;
23228;SDS011;11783;50.350;6.576;2023-03-31T15:03:17;6.80;;;1.23;;
23228;SDS011;11783;50.350;6.576;2023-03-31T15:05:43;2.53;;;0.75;;
23228;SDS011;11783;50.350;6.576;2023-03-31T15:08:11;5.32;;;0.80;;
23228;SDS011;11783;50.350;6.576;2023-03-31T15:10:42;4.60;;;0.98;;
23228;SDS011;11783;50.350;6.576;2023-03-31T15:13:19;4.63;;;0.60;;
23228;SDS011;11783;50.350;6.576;2023-03-31T15:18:54;4.00;;;1.08;;
23228;SDS011;11783;50.350;6.576;2023-03-31T15:21:22;3.97;;;0.70;;
23228;SDS011;11783;50.350;6.576;2023-03-31T15:23:50;5.97;;;1.17;;
23228;SDS011;11783;50.350;6.576;2023-03-31T15:26:20;8.50;;;0.93;;
23228;SDS011;11783;50.350;6.576;2023-03-31T15:28:56;5.55;;;1.10;;
23228;SDS011;11783;50.350;6.576;2023-03-31T15:31:27;5.07;;;1.00;;
23228;SDS011;11783;50.350;6.576;2023-03-31T15:33:54;6.68;;;0.77;;
23228;SDS011;11783;50.350;6.576;2023-03-31T15:36:20;6.10;;;0.98;;
23228;SDS011;11783;50.350;6.576;2023-03-31T15:38:46;7.25;;;1.00;;
23228;SDS011;11783;50.350;6.576;2023-03-31T15:41:20;3.35;;;0.90;;
23228;SDS011;11783;50.350;6.576;2023-03-31T15:43:48;4.00;;;0.80;;
23228;SDS011;11783;50.350;6.576;2023-03-31T15:49:17;4.93;;;0.65;;
23228;SDS011;11783;50.350;6.576;2023-03-31T15:51:44;2.88;;;0.70;;
23228;SDS011;11783;50.350;6.576;2023-03-31T15:57:00;4.30;;;0.80;;
23228;SDS011;11783;50.350;6.576;2023-03-31T15:59:28;6.28;;;0.90;;
23228;SDS011;11783;50.350;6.576;2023-03-31T16:01:55;4.95;;;0.85;;
23228;SDS011;11783;50.350;6.576;2023-03-31T16:04:23;3.92;;;1.02;;
23228;SDS011;11783;50.350;6.576;2023-03-31T16:06:55;6.28;;;1.15;;
23228;SDS011;11783;50.350;6.576;2023-03-31T16:09:39;5.13;;;1.00;;
23228;SDS011;11783;50.350;6.576;2023-03-31T16:12:10;5.68;;;0.82;;
23228;SDS011;11783;50.350;6.576;2023-03-31T16:14:51;3.42;;;0.73;;
23228;SDS011;11783;50.350;6.576;2023-03-31T16:17:23;6.88;;;1.23;;
23228;SDS011;11783;50.350;6.576;2023-03-31T16:22:28;4.35;;;1.10;;
23228;SDS011;11783;50.350;6.576;2023-03-31T16:25:01;4.75;;;1.27;;
23228;SDS011;11783;50.350;6.576;2023-03-31T16:27:35;4.53;;;1.00;;
23228;SDS011;11783;50.350;6.576;2023-03-31T16:30:07;5.22;;;1.27;;
23228;SDS011;11783;50.350;6.576;2023-03-31T16:33:00;7.57;;;1.27;;
23228;SDS011;11783;50.350;6.576;2023-03-31T16:35:34;6.20;;;1.20;;
23228;SDS011;11783;50.350;6.576;2023-03-31T16:38:05;4.65;;;1.30;;
23228;SDS011;11783;50.350;6.576;2023-03-31T16:40:40;4.75;;;0.82;;
23228;SDS011;11783;50.350;6.576;2023-03-31T16:43:18;3.45;;;0.57;;
23228;SDS011;11783;50.350;6.576;2023-03-31T16:45:45;3.88;;;0.60;;
23228;SDS011;11783;50.350;6.576;2023-03-31T16:48:13;2.30;;;0.70;;
23228;SDS011;11783;50.350;6.576;2023-03-31T16:50:46;2.85;;;0.60;;
23228;SDS011;11783;50.350;6.576;2023-03-31T16:53:14;2.15;;;0.57;;
23228;SDS011;11783;50.350;6.576;2023-03-31T16:55:41;2.70;;;0.70;;
23228;SDS011;11783;50.350;6.576;2023-03-31T16:58:07;2.83;;;0.57;;
23228;SDS011;11783;50.350;6.576;2023-03-31T17:00:33;4.53;;;0.73;;
23228;SDS011;11783;50.350;6.576;2023-03-31T17:03:00;4.45;;;0.77;;
23228;SDS011;11783;50.350;6.576;2023-03-31T17:05:26;1.88;;;0.52;;
23228;SDS011;11783;50.350;6.576;2023-03-31T17:07:53;2.88;;;0.70;;
23228;SDS011;11783;50.350;6.576;2023-03-31T17:10:18;2.45;;;0.60;;
23228;SDS011;11783;50.350;6.576;2023-03-31T17:12:44;5.85;;;1.15;;
23228;SDS011;11783;50.350;6.576;2023-03-31T17:15:10;3.10;;;0.63;;
23228;SDS011;11783;50.350;6.576;2023-03-31T17:17:37;5.50;;;0.70;;
23228;SDS011;11783;50.350;6.576;2023-03-31T17:20:03;4.60;;;1.00;;
23228;SDS011;11783;50.350;6.576;2023-03-31T17:22:30;2.83;;;0.77;;
23228;SDS011;11783;50.350;6.576;2023-03-31T17:24:56;4.35;;;0.95;;
23228;SDS011;11783;50.350;6.576;2023-03-31T17:27:26;4.43;;;0.70;;
23228;SDS011;11783;50.350;6.576;2023-03-31T17:29:52;4.07;;;0.75;;
23228;SDS011;11783;50.350;6.576;2023-03-31T17:32:18;6.07;;;0.77;;
23228;SDS011;11783;50.350;6.576;2023-03-31T17:34:44;4.03;;;0.68;;
23228;SDS011;11783;50.350;6.576;2023-03-31T17:37:13;3.60;;;0.88;;
23228;SDS011;11783;50.350;6.576;2023-03-31T17:39:39;6.40;;;0.55;;
23228;SDS011;11783;50.350;6.576;2023-03-31T17:42:04;4.60;;;0.80;;
23228;SDS011;11783;50.350;6.576;2023-03-31T17:44:29;4.07;;;0.50;;
23228;SDS011;11783;50.350;6.576;2023-03-31T17:46:55;3.45;;;0.85;;
23228;SDS011;11783;50.350;6.576;2023-03-31T17:49:21;2.40;;;0.60;;
23228;SDS011;11783;50.350;6.576;2023-03-31T17:51:47;3.88;;;0.52;;
23228;SDS011;11783;50.350;6.576;2023-03-31T17:54:14;1.80;;;0.45;;
23228;SDS011;11783;50.350;6.576;2023-03-31T17:56:40;4.32;;;0.75;;
23228;SDS011;11783;50.350;6.576;2023-03-31T17:59:06;1.27;;;0.45;;
23228;SDS011;11783;50.350;6.576;2023-03-31T18:01:31;2.42;;;0.60;;
23228;SDS011;11783;50.350;6.576;2023-03-31T18:03:57;1.02;;;0.50;;
23228;SDS011;11783;50.350;6.576;2023-03-31T18:06:23;0.65;;;0.30;;
23228;SDS011;11783;50.350;6.576;2023-03-31T18:08:49;1.27;;;0.40;;
23228;SDS011;11783;50.350;6.576;2023-03-31T18:11:14;1.60;;;0.40;;
23228;SDS011;11783;50.350;6.576;2023-03-31T18:13:40;10.20;;;1.20;;